Weather at Amsterdam Airport Schiphol

Public forecast

Using degrees Celsius for public forecast. Weather courtesy of forecast.io.

Current aviation weather report (METAR) for Amsterdam Airport Schiphol

2022/11/30 10:25 (retrieved 11 minutes ago)

EHAM 301025Z 32003KT 7000 -DZ FEW026 BKN035 08/07 Q1025 NOSIG

Aviation forecast (TAF) for Amsterdam Airport Schiphol

2022/11/30 06:27 (retrieved 4 hours ago)

TAF TAF EHAM 300521Z 3006/0112 VRB02KT 9000 BKN025 PROB30 TEMPO 3006/3010 1200 BCFG -DZ BECMG 3013/3016 05006KT PROB30 3018/0108 4000 BR